createdAt,value
2017-11-10T00:00:12.226Z,21.52
2017-11-10T00:00:43.874Z,21.53
2017-11-10T00:01:15.518Z,21.53
2017-11-10T00:01:47.416Z,21.53
2017-11-10T00:02:19.082Z,21.54
2017-11-10T00:02:50.912Z,21.53
2017-11-10T00:03:22.563Z,21.52
2017-11-10T00:03:54.241Z,21.52
2017-11-10T00:04:25.890Z,21.51
2017-11-10T00:04:57.538Z,21.53
2017-11-10T00:05:29.181Z,21.56
2017-11-10T00:06:00.826Z,21.58
2017-11-10T00:06:32.470Z,21.59
2017-11-10T00:07:04.353Z,21.61
2017-11-10T00:07:36.118Z,21.62
2017-11-10T00:08:08.068Z,21.63
2017-11-10T00:08:39.717Z,21.63
2017-11-10T00:09:11.382Z,21.63
2017-11-10T00:09:43.301Z,21.64
2017-11-10T00:10:14.946Z,21.64
2017-11-10T00:10:46.598Z,21.63
2017-11-10T00:11:18.246Z,21.61
2017-11-10T00:11:49.913Z,21.62
2017-11-10T00:12:21.566Z,21.62
2017-11-10T00:12:53.214Z,21.58
2017-11-10T00:13:24.861Z,21.61
2017-11-10T00:13:56.593Z,21.59
2017-11-10T00:14:28.384Z,21.60
2017-11-10T00:15:00.038Z,21.60
2017-11-10T00:15:31.682Z,21.61
2017-11-10T00:16:03.325Z,21.60
2017-11-10T00:16:34.975Z,21.60
2017-11-10T00:17:06.618Z,21.59
2017-11-10T00:17:38.270Z,21.59
2017-11-10T00:18:09.915Z,21.57
2017-11-10T00:18:41.741Z,21.57
2017-11-10T00:19:13.440Z,21.58
2017-11-10T00:19:45.117Z,21.59
2017-11-10T00:20:16.761Z,21.59
2017-11-10T00:20:48.406Z,21.58
2017-11-10T00:21:20.051Z,21.58
2017-11-10T00:21:51.694Z,21.61
2017-11-10T00:22:23.337Z,21.61
2017-11-10T00:22:54.983Z,21.59
2017-11-10T00:23:26.638Z,21.58
2017-11-10T00:23:58.286Z,21.57
2017-11-10T00:24:30.202Z,21.58
2017-11-10T00:25:02.035Z,21.58
2017-11-10T00:25:33.787Z,21.60
2017-11-10T00:26:05.434Z,21.59
2017-11-10T00:26:37.134Z,21.60
2017-11-10T00:27:09.019Z,21.61
2017-11-10T00:27:40.890Z,21.61
2017-11-10T00:28:12.609Z,21.60
2017-11-10T00:28:44.558Z,21.63
2017-11-10T00:29:16.209Z,21.63
2017-11-10T00:29:47.856Z,21.63
2017-11-10T00:30:19.502Z,21.62
2017-11-10T00:30:51.381Z,21.62
2017-11-10T00:31:23.034Z,21.60
2017-11-10T00:31:54.714Z,21.60
2017-11-10T00:32:26.551Z,21.60
2017-11-10T00:32:58.309Z,21.62
2017-11-10T00:33:30.006Z,21.62
2017-11-10T00:34:01.655Z,21.61
2017-11-10T00:34:33.541Z,21.61
2017-11-10T00:35:05.418Z,21.63
2017-11-10T00:35:37.061Z,21.62
2017-11-10T00:36:08.705Z,21.61
2017-11-10T00:36:40.346Z,21.60
2017-11-10T00:37:11.996Z,21.60
2017-11-10T00:37:43.644Z,21.60
2017-11-10T00:38:15.343Z,21.60
2017-11-10T00:38:47.291Z,21.60
2017-11-10T00:39:18.942Z,21.59
2017-11-10T00:39:50.593Z,21.60
2017-11-10T00:40:22.238Z,21.61
2017-11-10T00:40:53.883Z,21.60
2017-11-10T00:41:25.527Z,21.59
2017-11-10T00:41:57.180Z,21.59
2017-11-10T00:42:28.835Z,21.60
2017-11-10T00:43:00.487Z,21.61
2017-11-10T00:43:32.182Z,21.59
2017-11-10T00:44:03.873Z,21.60
2017-11-10T00:44:35.518Z,21.60
2017-11-10T00:45:07.170Z,21.60
2017-11-10T00:45:38.943Z,21.61
2017-11-10T00:46:10.787Z,21.61
2017-11-10T00:46:42.534Z,21.60
2017-11-10T00:47:14.182Z,21.60
2017-11-10T00:47:45.887Z,21.59
2017-11-10T00:48:17.768Z,21.59
2017-11-10T00:48:49.603Z,21.59
2017-11-10T00:49:21.358Z,21.60
2017-11-10T00:49:53.010Z,21.57
2017-11-10T00:50:24.655Z,21.60
2017-11-10T00:50:56.323Z,21.61
2017-11-10T00:51:27.966Z,21.61
2017-11-10T00:51:59.615Z,21.60
2017-11-10T00:52:31.266Z,21.59
2017-11-10T00:53:03.158Z,21.58
2017-11-10T00:53:34.818Z,21.59
2017-11-10T00:54:06.465Z,21.60
2017-11-10T00:54:38.111Z,21.59
2017-11-10T00:55:09.758Z,21.60
2017-11-10T00:55:41.398Z,21.61
2017-11-10T00:56:13.046Z,21.61
2017-11-10T00:56:44.690Z,21.62
2017-11-10T00:57:16.334Z,21.63
2017-11-10T00:57:47.986Z,21.63
2017-11-10T00:58:19.834Z,21.64
2017-11-10T00:58:51.534Z,21.66
2017-11-10T00:59:23.182Z,21.66
2017-11-10T00:59:54.834Z,21.67
2017-11-10T01:00:26.496Z,21.65
2017-11-10T01:00:58.143Z,21.63
2017-11-10T01:01:29.795Z,21.63
2017-11-10T01:02:01.686Z,21.63
2017-11-10T01:02:33.337Z,21.62
2017-11-10T01:03:04.988Z,21.63
2017-11-10T01:03:36.634Z,21.62
2017-11-10T01:04:08.508Z,21.63
2017-11-10T01:04:40.158Z,21.62
2017-11-10T01:05:11.844Z,21.61
2017-11-10T01:05:43.498Z,21.59
2017-11-10T01:06:15.147Z,21.61
2017-11-10T01:06:46.796Z,21.61
2017-11-10T01:07:18.434Z,21.58
2017-11-10T01:07:50.082Z,21.58
2017-11-10T01:08:21.730Z,21.59
2017-11-10T01:08:53.374Z,21.59
2017-11-10T01:09:25.017Z,21.58
2017-11-10T01:09:56.667Z,21.59
2017-11-10T01:10:28.318Z,21.58
2017-11-10T01:10:59.962Z,21.58
2017-11-10T01:11:31.853Z,21.58
2017-11-10T01:12:03.503Z,21.58
2017-11-10T01:12:35.166Z,21.57
2017-11-10T01:13:06.810Z,21.56
2017-11-10T01:13:38.729Z,21.57
2017-11-10T01:14:10.377Z,21.58
2017-11-10T01:14:42.034Z,21.58
2017-11-10T01:15:13.683Z,21.61
2017-11-10T01:15:45.325Z,21.60
2017-11-10T01:16:16.965Z,21.60
2017-11-10T01:16:48.888Z,21.61
2017-11-10T01:17:20.537Z,21.62
2017-11-10T01:17:52.481Z,21.63
2017-11-10T01:18:24.139Z,21.64
2017-11-10T01:18:55.990Z,21.63
2017-11-10T01:19:27.634Z,21.63
2017-11-10T01:19:59.276Z,21.62
2017-11-10T01:20:30.918Z,21.61
2017-11-10T01:21:02.839Z,21.60
2017-11-10T01:21:34.586Z,21.60
2017-11-10T01:22:06.381Z,21.59
2017-11-10T01:22:38.030Z,21.57
2017-11-10T01:23:09.819Z,21.59
2017-11-10T01:23:41.651Z,21.57
2017-11-10T01:24:13.410Z,21.56
2017-11-10T01:24:45.358Z,21.54
2017-11-10T01:25:17.007Z,21.54
2017-11-10T01:25:48.657Z,21.54
2017-11-10T01:26:20.306Z,21.54
2017-11-10T01:26:51.954Z,21.55
2017-11-10T01:27:23.603Z,21.56
2017-11-10T01:27:55.245Z,21.59
2017-11-10T01:28:26.897Z,21.59
2017-11-10T01:28:58.610Z,21.59
2017-11-10T01:29:30.258Z,21.59
2017-11-10T01:30:01.901Z,21.61
2017-11-10T01:30:33.546Z,21.59
2017-11-10T01:31:05.189Z,21.61
2017-11-10T01:31:36.830Z,21.60
2017-11-10T01:32:08.469Z,21.59
2017-11-10T01:32:40.110Z,21.59
2017-11-10T01:33:11.753Z,21.59
2017-11-10T01:33:43.406Z,21.58
2017-11-10T01:34:15.274Z,21.59
2017-11-10T01:34:46.918Z,21.57
2017-11-10T01:35:18.811Z,21.58
2017-11-10T01:35:50.461Z,21.59
2017-11-10T01:36:22.101Z,21.58
2017-11-10T01:36:53.742Z,21.59
2017-11-10T01:37:25.386Z,21.58
2017-11-10T01:37:57.034Z,21.55
2017-11-10T01:38:28.681Z,21.57
2017-11-10T01:39:00.326Z,21.56
2017-11-10T01:39:32.254Z,21.55
2017-11-10T01:40:03.906Z,21.54
2017-11-10T01:40:35.553Z,21.52
2017-11-10T01:41:07.487Z,21.52
2017-11-10T01:41:39.348Z,21.53
2017-11-10T01:42:10.994Z,21.53
2017-11-10T01:42:42.671Z,21.54
2017-11-10T01:43:14.317Z,21.53
2017-11-10T01:43:46.004Z,21.53
2017-11-10T01:44:18.569Z,21.51
2017-11-10T01:44:50.217Z,21.52
2017-11-10T01:45:21.866Z,21.50
2017-11-10T01:45:53.515Z,21.49
2017-11-10T01:46:25.170Z,21.47
2017-11-10T01:46:56.821Z,21.46
2017-11-10T01:47:28.615Z,21.46
2017-11-10T01:48:00.286Z,21.45
2017-11-10T01:48:37.541Z,21.44
2017-11-10T01:49:09.190Z,21.45
2017-11-10T01:49:43.894Z,21.44
2017-11-10T01:50:15.844Z,21.45
2017-11-10T01:50:47.672Z,21.44
2017-11-10T01:51:19.433Z,21.45
2017-11-10T01:51:51.385Z,21.46
2017-11-10T01:52:23.218Z,21.46
2017-11-10T01:52:54.975Z,21.44
2017-11-10T01:53:26.924Z,21.45
2017-11-10T01:53:58.593Z,21.46
2017-11-10T01:54:30.266Z,21.44
2017-11-10T01:55:01.910Z,21.44
2017-11-10T01:55:33.558Z,21.43
2017-11-10T01:56:05.407Z,21.44
2017-11-10T01:56:37.126Z,21.44
2017-11-10T01:57:09.032Z,21.41
2017-11-10T01:57:40.697Z,21.40
2017-11-10T01:58:12.337Z,21.39
2017-11-10T01:58:43.991Z,21.39
2017-11-10T01:59:15.634Z,21.41
2017-11-10T01:59:47.547Z,21.40
2017-11-10T02:00:19.369Z,21.40
2017-11-10T02:00:51.061Z,21.39
2017-11-10T02:01:22.702Z,21.41
2017-11-10T02:01:54.353Z,21.41
2017-11-10T02:02:26.062Z,21.42
2017-11-10T02:02:57.742Z,21.43
2017-11-10T02:03:29.397Z,21.44
2017-11-10T02:04:01.298Z,21.44
2017-11-10T02:04:32.954Z,21.45
2017-11-10T02:05:04.603Z,21.47
2017-11-10T02:05:36.245Z,21.47
2017-11-10T02:06:07.898Z,21.47
2017-11-10T02:06:39.814Z,21.47
2017-11-10T02:07:11.699Z,21.46
2017-11-10T02:07:43.414Z,21.47
2017-11-10T02:08:15.166Z,21.47
2017-11-10T02:08:46.805Z,21.47
2017-11-10T02:09:18.445Z,21.45
2017-11-10T02:09:50.090Z,21.47
2017-11-10T02:10:21.922Z,21.45
2017-11-10T02:10:53.768Z,21.44
2017-11-10T02:11:25.514Z,21.44
2017-11-10T02:11:57.162Z,21.43
2017-11-10T02:12:28.805Z,21.42
2017-11-10T02:13:00.450Z,21.42
2017-11-10T02:13:32.094Z,21.38
2017-11-10T02:14:03.923Z,21.42
2017-11-10T02:14:35.672Z,21.40
2017-11-10T02:15:07.551Z,21.42
2017-11-10T02:15:39.267Z,21.45
2017-11-10T02:16:10.918Z,21.45
2017-11-10T02:16:42.566Z,21.46
2017-11-10T02:17:14.209Z,21.45
2017-11-10T02:17:45.854Z,21.45
2017-11-10T02:18:17.498Z,21.46
2017-11-10T02:18:49.147Z,21.47
2017-11-10T02:19:20.794Z,21.47
2017-11-10T02:19:52.438Z,21.47
2017-11-10T02:20:24.078Z,21.46
2017-11-10T02:20:55.721Z,21.45
2017-11-10T02:21:28.553Z,21.46
2017-11-10T02:22:00.209Z,21.46
2017-11-10T02:22:31.850Z,21.45
2017-11-10T02:23:03.495Z,21.47
2017-11-10T02:23:35.138Z,21.45
2017-11-10T02:24:06.786Z,21.42
2017-11-10T02:24:38.429Z,21.41
2017-11-10T02:25:10.071Z,21.41
2017-11-10T02:25:41.749Z,21.43
2017-11-10T02:26:13.445Z,21.45
2017-11-10T02:26:45.085Z,21.45
2017-11-10T02:27:16.731Z,21.45
2017-11-10T02:27:48.454Z,21.41
2017-11-10T02:28:20.204Z,21.41
2017-11-10T02:28:52.154Z,21.41
2017-11-10T02:29:23.802Z,21.43
2017-11-10T02:29:55.448Z,21.42
2017-11-10T02:30:27.094Z,21.43
2017-11-10T02:30:58.737Z,21.42
2017-11-10T02:31:30.579Z,21.45
2017-11-10T02:32:02.231Z,21.44
2017-11-10T02:32:33.876Z,21.43
2017-11-10T02:33:05.519Z,21.42
2017-11-10T02:33:37.162Z,21.40
2017-11-10T02:34:08.829Z,21.39
2017-11-10T02:34:40.519Z,21.39
2017-11-10T02:35:12.471Z,21.41
2017-11-10T02:35:44.167Z,21.41
2017-11-10T02:36:16.070Z,21.42
2017-11-10T02:36:47.721Z,21.42
2017-11-10T02:37:19.366Z,21.43
2017-11-10T02:37:51.018Z,21.42
2017-11-10T02:38:22.662Z,21.42
2017-11-10T02:38:54.301Z,21.42
2017-11-10T02:39:28.011Z,21.40
2017-11-10T02:39:59.705Z,21.40
2017-11-10T02:40:31.601Z,21.40
2017-11-10T02:41:03.600Z,21.39
2017-11-10T02:41:35.251Z,21.40
2017-11-10T02:42:07.107Z,21.40
2017-11-10T02:42:39.759Z,21.39
2017-11-10T02:43:11.446Z,21.38
2017-11-10T02:43:43.098Z,21.37
2017-11-10T02:44:14.741Z,21.39
2017-11-10T02:44:46.389Z,21.39
2017-11-10T02:45:18.058Z,21.39
2017-11-10T02:45:49.758Z,21.41
2017-11-10T02:46:21.405Z,21.40
2017-11-10T02:46:53.063Z,21.41
2017-11-10T02:47:24.843Z,21.40
2017-11-10T02:47:56.494Z,21.39
2017-11-10T02:48:28.139Z,21.39
2017-11-10T02:48:59.790Z,21.40
2017-11-10T02:49:31.433Z,21.39
2017-11-10T02:50:03.075Z,21.38
2017-11-10T02:50:34.722Z,21.39
2017-11-10T02:51:06.603Z,21.39
2017-11-10T02:51:38.286Z,21.37
2017-11-10T02:52:09.940Z,21.38
2017-11-10T02:52:41.590Z,21.37
2017-11-10T02:53:13.254Z,21.37
2017-11-10T02:53:44.898Z,21.39
2017-11-10T02:54:16.550Z,21.38
2017-11-10T02:54:48.444Z,21.39
2017-11-10T02:55:20.094Z,21.39
2017-11-10T02:55:51.742Z,21.40
2017-11-10T02:56:23.385Z,21.40
2017-11-10T02:56:55.027Z,21.38
2017-11-10T02:57:26.674Z,21.37
2017-11-10T02:57:58.317Z,21.38
2017-11-10T02:58:29.957Z,21.38
2017-11-10T02:59:01.886Z,21.38
2017-11-10T02:59:33.721Z,21.39
2017-11-10T03:00:05.411Z,21.40
2017-11-10T03:00:37.058Z,21.39
2017-11-10T03:01:08.702Z,21.37
2017-11-10T03:01:40.352Z,21.39
2017-11-10T03:02:12.041Z,21.38
2017-11-10T03:02:43.893Z,21.38
2017-11-10T03:03:15.635Z,21.39
2017-11-10T03:03:47.584Z,21.41
2017-11-10T03:04:19.283Z,21.42
2017-11-10T03:04:50.986Z,21.42
2017-11-10T03:05:22.630Z,21.42
2017-11-10T03:05:54.274Z,21.42
2017-11-10T03:06:26.101Z,21.42
2017-11-10T03:06:57.762Z,21.43
2017-11-10T03:07:29.411Z,21.43
2017-11-10T03:08:01.054Z,21.44
2017-11-10T03:08:32.698Z,21.44
2017-11-10T03:09:04.344Z,21.42
2017-11-10T03:09:35.986Z,21.42
2017-11-10T03:10:07.636Z,21.43
2017-11-10T03:10:39.544Z,21.43
2017-11-10T03:11:11.242Z,21.42
2017-11-10T03:11:42.890Z,21.43
2017-11-10T03:12:14.539Z,21.42
2017-11-10T03:12:46.186Z,21.44
2017-11-10T03:13:18.061Z,21.42
2017-11-10T03:13:50.014Z,21.41
2017-11-10T03:14:21.658Z,21.42
2017-11-10T03:14:53.334Z,21.42
2017-11-10T03:15:25.250Z,21.42
2017-11-10T03:15:56.926Z,21.42
2017-11-10T03:16:28.645Z,21.43
2017-11-10T03:17:00.300Z,21.44
2017-11-10T03:17:31.946Z,21.44
2017-11-10T03:18:03.590Z,21.45
2017-11-10T03:18:35.234Z,21.45
2017-11-10T03:19:06.874Z,21.45
2017-11-10T03:19:38.520Z,21.45
2017-11-10T03:20:10.165Z,21.45
2017-11-10T03:20:41.806Z,21.46
2017-11-10T03:21:13.446Z,21.44
2017-11-10T03:21:45.253Z,21.46
2017-11-10T03:22:17.084Z,21.47
2017-11-10T03:22:48.843Z,21.47
2017-11-10T03:23:20.676Z,21.45
2017-11-10T03:23:52.436Z,21.45
2017-11-10T03:24:24.384Z,21.46
2017-11-10T03:24:56.037Z,21.44
2017-11-10T03:25:27.690Z,21.44
2017-11-10T03:25:59.333Z,21.44
2017-11-10T03:26:31.217Z,21.45
2017-11-10T03:27:02.901Z,21.43
2017-11-10T03:27:34.851Z,21.42
2017-11-10T03:28:06.799Z,21.40
2017-11-10T03:28:38.747Z,21.40
2017-11-10T03:29:10.393Z,21.40
2017-11-10T03:29:42.042Z,21.39
2017-11-10T03:30:13.687Z,21.40
2017-11-10T03:30:45.335Z,21.39
2017-11-10T03:31:16.980Z,21.41
2017-11-10T03:31:48.681Z,21.39
2017-11-10T03:32:20.526Z,21.40
2017-11-10T03:32:52.214Z,21.40
2017-11-10T03:33:23.853Z,21.38
2017-11-10T03:33:55.494Z,21.39
2017-11-10T03:34:27.138Z,21.37
2017-11-10T03:34:58.782Z,21.38
2017-11-10T03:35:30.422Z,21.37
2017-11-10T03:36:02.070Z,21.44
2017-11-10T03:36:33.722Z,21.57
2017-11-10T03:37:05.374Z,21.63
2017-11-10T03:37:37.185Z,21.49
2017-11-10T03:38:09.164Z,21.24
2017-11-10T03:38:40.810Z,20.98
2017-11-10T03:39:12.452Z,20.71
2017-11-10T03:39:44.097Z,20.42
2017-11-10T03:40:15.791Z,20.20
2017-11-10T03:40:47.442Z,20.02
2017-11-10T03:41:19.381Z,19.86
2017-11-10T03:41:51.222Z,19.69
2017-11-10T03:42:22.973Z,19.57
2017-11-10T03:42:54.622Z,19.49
2017-11-10T03:43:26.262Z,19.55
2017-11-10T03:43:57.906Z,19.70
2017-11-10T03:44:29.545Z,19.87
2017-11-10T03:45:01.191Z,20.09
2017-11-10T03:45:32.839Z,20.27
2017-11-10T03:46:04.482Z,20.40
2017-11-10T03:46:36.416Z,20.49
2017-11-10T03:47:08.066Z,20.59
2017-11-10T03:47:39.763Z,20.66
2017-11-10T03:48:11.649Z,20.72
2017-11-10T03:48:43.293Z,20.77
2017-11-10T03:49:14.941Z,20.87
2017-11-10T03:49:46.591Z,20.93
2017-11-10T03:50:18.266Z,20.99
2017-11-10T03:50:49.915Z,21.04
2017-11-10T03:51:21.744Z,21.06
2017-11-10T03:51:53.395Z,21.07
2017-11-10T03:52:25.050Z,21.09
2017-11-10T03:52:56.748Z,21.12
2017-11-10T03:53:28.397Z,21.11
2017-11-10T03:54:00.286Z,21.14
2017-11-10T03:54:31.965Z,21.15
2017-11-10T03:55:03.859Z,21.17
2017-11-10T03:55:35.506Z,21.19
2017-11-10T03:56:07.149Z,21.20
2017-11-10T03:56:38.842Z,21.21
2017-11-10T03:57:10.490Z,21.22
2017-11-10T03:57:42.134Z,21.25
2017-11-10T03:58:13.786Z,21.28
2017-11-10T03:58:45.432Z,21.32
2017-11-10T03:59:17.079Z,21.38
2017-11-10T03:59:48.723Z,21.40
2017-11-10T04:00:20.367Z,21.43
2017-11-10T04:00:52.015Z,21.48
2017-11-10T04:01:23.655Z,21.51
2017-11-10T04:01:55.297Z,21.55
2017-11-10T04:02:26.946Z,21.59
2017-11-10T04:02:58.593Z,21.60
2017-11-10T04:03:30.486Z,21.62
2017-11-10T04:04:02.441Z,21.66
2017-11-10T04:04:34.390Z,21.68
2017-11-10T04:05:06.339Z,21.70
2017-11-10T04:05:37.981Z,21.73
2017-11-10T04:06:09.630Z,21.75
2017-11-10T04:06:41.274Z,21.78
2017-11-10T04:07:12.919Z,21.78
2017-11-10T04:07:44.570Z,21.80
2017-11-10T04:08:16.216Z,21.81
2017-11-10T04:08:48.140Z,21.81
2017-11-10T04:09:19.800Z,21.85
2017-11-10T04:09:51.450Z,21.85
2017-11-10T04:10:23.093Z,21.87
2017-11-10T04:10:54.734Z,21.88
2017-11-10T04:11:26.375Z,21.86
2017-11-10T04:11:58.013Z,21.86
2017-11-10T04:12:29.654Z,21.89
2017-11-10T04:13:01.293Z,21.87
2017-11-10T04:13:32.982Z,21.89
2017-11-10T04:14:04.869Z,21.92
2017-11-10T04:14:36.518Z,21.96
2017-11-10T04:15:08.376Z,21.95
2017-11-10T04:15:40.021Z,21.93
2017-11-10T04:16:11.666Z,21.92
2017-11-10T04:16:43.314Z,21.94
2017-11-10T04:17:14.959Z,21.96
2017-11-10T04:17:46.606Z,21.96
2017-11-10T04:18:18.255Z,21.94
2017-11-10T04:18:49.902Z,21.91
2017-11-10T04:19:21.546Z,21.91
2017-11-10T04:19:53.195Z,21.90
2017-11-10T04:20:24.849Z,21.93
2017-11-10T04:20:56.547Z,21.96
2017-11-10T04:21:28.527Z,21.97
2017-11-10T04:22:00.171Z,21.99
2017-11-10T04:22:32.004Z,21.99
2017-11-10T04:23:03.650Z,21.97
2017-11-10T04:23:35.299Z,21.99
2017-11-10T04:24:06.944Z,21.96
2017-11-10T04:24:38.599Z,21.95
2017-11-10T04:25:10.268Z,21.95
2017-11-10T04:25:41.917Z,21.94
2017-11-10T04:26:13.792Z,21.91
2017-11-10T04:26:45.443Z,21.91
2017-11-10T04:27:17.089Z,21.91
2017-11-10T04:27:48.739Z,21.85
2017-11-10T04:28:20.429Z,21.84
2017-11-10T04:28:52.138Z,21.79
2017-11-10T04:29:24.018Z,21.82
2017-11-10T04:29:55.665Z,21.79
2017-11-10T04:30:27.310Z,21.74
2017-11-10T04:30:58.953Z,21.71
2017-11-10T04:31:30.784Z,21.69
2017-11-10T04:32:02.478Z,21.67
2017-11-10T04:32:34.134Z,21.69
2017-11-10T04:33:05.821Z,21.69
2017-11-10T04:33:37.498Z,21.70
2017-11-10T04:34:09.142Z,21.68
2017-11-10T04:34:40.785Z,21.66
2017-11-10T04:35:12.425Z,21.66
2017-11-10T04:35:44.086Z,21.64
2017-11-10T04:36:15.800Z,21.63
2017-11-10T04:36:47.466Z,21.62
2017-11-10T04:37:19.115Z,21.59
2017-11-10T04:37:50.757Z,21.57
2017-11-10T04:38:22.551Z,21.57
2017-11-10T04:38:54.206Z,21.54
2017-11-10T04:39:25.858Z,21.50
2017-11-10T04:39:57.778Z,21.48
2017-11-10T04:40:29.426Z,21.45
2017-11-10T04:41:01.090Z,21.42
2017-11-10T04:41:32.733Z,21.43
2017-11-10T04:42:04.375Z,21.41
2017-11-10T04:42:36.027Z,21.38
2017-11-10T04:43:07.674Z,21.39
2017-11-10T04:43:39.327Z,21.38
2017-11-10T04:44:10.976Z,21.35
2017-11-10T04:44:42.861Z,21.37
2017-11-10T04:45:14.550Z,21.36
2017-11-10T04:45:46.452Z,21.35
2017-11-10T04:46:18.283Z,21.32
2017-11-10T04:46:50.043Z,21.30
2017-11-10T04:47:21.992Z,21.29
2017-11-10T04:47:53.941Z,21.27
2017-11-10T04:48:25.890Z,21.26
2017-11-10T04:48:57.840Z,21.26
2017-11-10T04:49:29.494Z,21.25
2017-11-10T04:50:01.142Z,21.24
2017-11-10T04:50:32.786Z,21.21
2017-11-10T04:51:04.431Z,21.19
2017-11-10T04:51:36.118Z,21.19
2017-11-10T04:52:07.943Z,21.17
2017-11-10T04:52:39.589Z,21.16
2017-11-10T04:53:11.282Z,21.16
2017-11-10T04:53:43.113Z,21.14
2017-11-10T04:54:14.873Z,21.13
2017-11-10T04:54:46.522Z,21.11
2017-11-10T04:55:18.171Z,21.09
2017-11-10T04:55:50.105Z,21.10
2017-11-10T04:56:22.055Z,21.08
2017-11-10T04:56:53.712Z,21.09
2017-11-10T04:57:25.357Z,21.08
2017-11-10T04:57:57.029Z,21.06
2017-11-10T04:58:28.682Z,21.07
2017-11-10T04:59:00.331Z,21.06
2017-11-10T04:59:32.171Z,21.05
2017-11-10T05:00:04.055Z,21.03
2017-11-10T05:00:35.804Z,21.02
2017-11-10T05:01:07.446Z,21.01
2017-11-10T05:01:39.396Z,21.01
2017-11-10T05:02:11.239Z,21.01
2017-11-10T05:02:42.988Z,21.00
2017-11-10T05:03:14.683Z,20.99
2017-11-10T05:03:46.533Z,20.99
2017-11-10T05:04:18.238Z,20.98
2017-11-10T05:04:49.881Z,20.98
2017-11-10T05:05:21.533Z,20.96
2017-11-10T05:05:53.452Z,20.96
2017-11-10T05:06:25.274Z,20.97
2017-11-10T05:06:57.044Z,20.97
2017-11-10T05:07:28.875Z,20.98
2017-11-10T05:08:00.636Z,20.98
2017-11-10T05:08:32.290Z,20.96
2017-11-10T05:09:03.935Z,20.96
2017-11-10T05:09:35.622Z,20.95
2017-11-10T05:10:07.282Z,20.94
2017-11-10T05:10:38.926Z,20.94
2017-11-10T05:11:10.794Z,20.95
2017-11-10T05:11:42.439Z,20.94
2017-11-10T05:12:14.099Z,20.94
2017-11-10T05:12:45.775Z,20.94
2017-11-10T05:13:17.418Z,20.94
2017-11-10T05:13:49.310Z,20.94
2017-11-10T05:14:20.963Z,20.95
2017-11-10T05:14:52.606Z,20.96
2017-11-10T05:15:24.251Z,20.95
2017-11-10T05:15:56.061Z,20.96
2017-11-10T05:16:27.829Z,20.98
2017-11-10T05:16:59.479Z,20.97
2017-11-10T05:17:31.130Z,20.98
2017-11-10T05:18:02.774Z,20.98
2017-11-10T05:18:34.668Z,20.99
2017-11-10T05:19:06.343Z,21.00
2017-11-10T05:19:37.994Z,21.00
2017-11-10T05:20:09.638Z,21.02
2017-11-10T05:20:41.284Z,21.04
2017-11-10T05:21:12.934Z,21.03
2017-11-10T05:21:44.573Z,21.04
2017-11-10T05:22:16.223Z,21.04
2017-11-10T05:22:47.867Z,21.04
2017-11-10T05:23:19.641Z,21.05
2017-11-10T05:23:51.334Z,21.05
2017-11-10T05:24:22.978Z,21.05
2017-11-10T05:24:54.622Z,21.06
2017-11-10T05:25:26.270Z,21.06
2017-11-10T05:25:57.913Z,21.05
2017-11-10T05:26:29.589Z,21.07
2017-11-10T05:27:01.278Z,21.09
2017-11-10T05:27:32.958Z,21.08
2017-11-10T05:28:04.812Z,21.10
2017-11-10T05:28:36.467Z,21.09
2017-11-10T05:29:08.157Z,21.10
2017-11-10T05:29:39.807Z,21.09
2017-11-10T05:30:11.657Z,21.10
2017-11-10T05:30:43.997Z,21.10
2017-11-10T05:31:15.678Z,21.12
2017-11-10T05:31:47.323Z,21.11
2017-11-10T05:32:18.977Z,21.11
2017-11-10T05:32:50.697Z,21.11
2017-11-10T05:33:22.523Z,21.12
2017-11-10T05:33:54.397Z,21.12
2017-11-10T05:34:26.110Z,21.11
2017-11-10T05:34:58.058Z,21.11
2017-11-10T05:35:29.743Z,21.10
2017-11-10T05:36:01.393Z,21.11
2017-11-10T05:36:33.262Z,21.09
2017-11-10T05:37:05.110Z,21.09
2017-11-10T05:37:36.882Z,21.10
2017-11-10T05:38:08.549Z,21.11
2017-11-10T05:38:40.473Z,21.12
2017-11-10T05:39:12.134Z,21.11
2017-11-10T05:39:43.811Z,21.10
2017-11-10T05:40:15.522Z,21.10
2017-11-10T05:40:47.186Z,21.10
2017-11-10T05:41:18.858Z,21.12
2017-11-10T05:41:50.632Z,21.12
2017-11-10T05:42:22.582Z,21.13
2017-11-10T05:42:54.260Z,21.13
2017-11-10T05:43:25.906Z,21.13
2017-11-10T05:43:57.554Z,21.15
2017-11-10T05:44:29.198Z,21.14
2017-11-10T05:45:00.940Z,21.14
2017-11-10T05:45:32.662Z,21.14
2017-11-10T05:46:04.330Z,21.13
2017-11-10T05:46:36.206Z,21.13
2017-11-10T05:47:07.972Z,21.13
2017-11-10T05:47:39.641Z,21.11
2017-11-10T05:48:11.286Z,21.12
2017-11-10T05:48:42.930Z,21.13
2017-11-10T05:49:14.569Z,21.14
2017-11-10T05:49:46.372Z,21.13
2017-11-10T05:50:18.057Z,21.11
2017-11-10T05:50:49.773Z,21.10
2017-11-10T05:51:21.446Z,21.10
2017-11-10T05:51:53.166Z,21.10
2017-11-10T05:52:24.855Z,21.11
2017-11-10T05:52:56.498Z,21.13
2017-11-10T05:53:28.141Z,21.14
2017-11-10T05:53:59.930Z,21.13
2017-11-10T05:54:31.607Z,21.13
2017-11-10T05:55:03.433Z,21.13
2017-11-10T05:55:35.114Z,21.12
2017-11-10T05:56:06.806Z,21.12
2017-11-10T05:56:38.489Z,21.13
2017-11-10T05:57:10.203Z,21.13
2017-11-10T05:57:42.038Z,21.13
2017-11-10T05:58:13.712Z,21.14
2017-11-10T05:58:45.414Z,21.14
2017-11-10T05:59:17.093Z,21.14
2017-11-10T05:59:48.763Z,21.14
2017-11-10T06:00:20.554Z,21.15
2017-11-10T06:00:52.207Z,21.14
2017-11-10T06:01:23.851Z,21.13
2017-11-10T06:01:55.493Z,21.13
2017-11-10T06:02:27.143Z,21.12
2017-11-10T06:02:58.786Z,21.12
2017-11-10T06:03:30.466Z,21.11
2017-11-10T06:04:02.332Z,21.11
2017-11-10T06:04:33.996Z,21.12
2017-11-10T06:05:05.804Z,21.11
2017-11-10T06:05:37.588Z,21.10
2017-11-10T06:06:09.426Z,21.10
2017-11-10T06:06:41.180Z,21.10
2017-11-10T06:07:12.831Z,21.10
2017-11-10T06:07:44.483Z,21.12
2017-11-10T06:08:16.173Z,21.12
2017-11-10T06:08:48.056Z,21.09
2017-11-10T06:09:20.003Z,21.10
2017-11-10T06:09:51.655Z,21.10
2017-11-10T06:10:23.302Z,21.08
2017-11-10T06:10:54.948Z,21.09
2017-11-10T06:11:26.591Z,21.10
2017-11-10T06:11:58.242Z,21.11
2017-11-10T06:12:29.889Z,21.11
2017-11-10T06:13:01.533Z,21.12
2017-11-10T06:13:33.177Z,21.12
2017-11-10T06:14:04.827Z,21.12
2017-11-10T06:14:36.730Z,21.12
2017-11-10T06:15:08.624Z,21.11
2017-11-10T06:15:40.269Z,21.12
2017-11-10T06:16:11.964Z,21.10
2017-11-10T06:16:43.614Z,21.13
2017-11-10T06:17:15.279Z,21.13
2017-11-10T06:17:46.926Z,21.13
2017-11-10T06:18:18.570Z,21.13
2017-11-10T06:18:50.210Z,21.14
2017-11-10T06:19:21.852Z,21.13
2017-11-10T06:19:53.763Z,21.15
2017-11-10T06:20:25.683Z,21.15
2017-11-10T06:20:57.351Z,21.15
2017-11-10T06:21:29.041Z,21.13
2017-11-10T06:22:00.685Z,21.11
2017-11-10T06:22:32.330Z,21.11
2017-11-10T06:23:03.978Z,21.11
2017-11-10T06:23:35.626Z,21.12
2017-11-10T06:24:07.513Z,21.11
2017-11-10T06:24:39.164Z,21.12
2017-11-10T06:25:11.070Z,21.12
2017-11-10T06:25:42.745Z,21.11
2017-11-10T06:26:14.395Z,21.12
2017-11-10T06:26:46.087Z,21.13
2017-11-10T06:27:17.936Z,21.11
2017-11-10T06:27:49.617Z,21.10
2017-11-10T06:28:21.570Z,21.10
2017-11-10T06:28:53.520Z,21.10
2017-11-10T06:29:25.359Z,21.10
2017-11-10T06:29:57.110Z,21.10
2017-11-10T06:30:28.956Z,21.09
2017-11-10T06:31:00.608Z,21.09
2017-11-10T06:31:32.301Z,21.09
2017-11-10T06:32:03.983Z,21.09
2017-11-10T06:32:35.850Z,21.08
2017-11-10T06:33:07.498Z,21.09
2017-11-10T06:33:39.414Z,21.09
2017-11-10T06:34:11.166Z,21.08
2017-11-10T06:34:42.991Z,21.07
2017-11-10T06:35:14.757Z,21.07
2017-11-10T06:35:46.706Z,21.07
2017-11-10T06:36:18.656Z,21.07
2017-11-10T06:36:50.311Z,21.07
2017-11-10T06:37:21.970Z,21.06
2017-11-10T06:37:53.613Z,21.06
2017-11-10T06:38:25.253Z,21.07
2017-11-10T06:38:56.894Z,21.06
2017-11-10T06:39:28.815Z,21.07
2017-11-10T06:40:00.514Z,21.06
2017-11-10T06:40:32.157Z,21.06
2017-11-10T06:41:03.807Z,21.05
2017-11-10T06:41:35.578Z,21.04
2017-11-10T06:42:07.337Z,21.05
2017-11-10T06:42:38.994Z,21.04
2017-11-10T06:43:10.639Z,21.05
2017-11-10T06:43:42.286Z,21.03
2017-11-10T06:44:13.926Z,21.03
2017-11-10T06:44:45.848Z,21.03
2017-11-10T06:45:17.498Z,21.02
2017-11-10T06:45:49.142Z,21.02
2017-11-10T06:46:20.795Z,21.02
2017-11-10T06:46:52.441Z,21.02
2017-11-10T06:47:24.367Z,21.01
2017-11-10T06:47:56.316Z,21.02
2017-11-10T06:48:27.962Z,21.02